Welcome to our Virtual Airline
Sign-in:

Flight MFC331201

  • Submitted By: Harry Yang
  • Departure Airport: Kaltag (KAL)
  • Arrival Airport: Anvik (PANV)
  • Aircraft: DHC2 BEAVER (N003MM_SW)
  • Flight Time: 00.57.05
  • Date Submitted: 20/10/23
  • Route: STOP-OVER AT GRAYLING (KGX)
  • Status: Accepted
Flight Details
Gross Revenue:
(4 load / $ 108.00 per unit
$ 432.00
Fuel Cost:
(67.1317 fuel used @ 5.1 / unit)
$ 342.37

Additional Log Information:

View Log

[11:40] ----- Flight Opened -----
[11:40] Cigar Box - 1.1.4.0
[11:40] FS: Prepar3D V4
[11:40] FSUIPC: v6.01
[11:40] Flight Number: MFC331201
[11:40] FS Aircraft: MilViz DHC2 Beaver N1117F
[11:40] FS Model: DHC2
[11:40] FS Type: Silent
[11:40] Departure: KAL
[11:40] Arrival: PANV
[11:40] Flight Level: 2500
[11:40] Flight Type: H
[11:40] Passengers: 4
[11:40] FOB: 570 lbs
[11:40] Gate: 2 - KAL
[11:40] Crash Detection: Disabled
[11:40] Engines: 1 Piston
[11:40] NOTE: Boarding has started
[11:40] Parking Brake: Engaged
[11:40] Engine 1: Started
[11:40] Light Data: Navigation ON
[11:40] Light Data: Beacon ON
[11:40] Light Data: Strobe lights ON
[11:40] Main Door Closed
[11:40] COM1: 128.30
[11:40] COM2: 127.80
[11:40] Transponder: 1200
[11:40] NAV1: 113.70
[11:40] NAV2: 110.60
[11:40] ADF1: 284.0
[11:40] ADF2: 240.0
[11:40] Navigation Mode: NAV
[11:44] Parking Brake: Released
[11:45] NOTE: Taxi started
[11:45] Flaps: Position 1
[11:45] Flaps: Position 3
[11:45] Flaps: Position 4
[11:45] Flaps: Position 5
[11:46] NOTE: ----- TAKE OFF -----
[11:46] Speed Data: 60 knots GS | 52 knots TAS | 46 knots IAS | 6 fpm VS
[11:46] FOB: 568 lbs
[11:46] Heading: 216° | Pitch: 7° | Bank: 0°
[11:46] Aircraft Weight: 4748.16 lbs
[11:46] Nearest Airport: KAL | 0.04 miles
[11:46] Runway: 21 - KAL
[11:46] Ground Surface: Gravel
[11:46] Ground Condition: Snow
[11:46] NOTE: Weather Report
[11:46] Wind 22° | 8 knots
[11:46] OAT: -2° C | TAT: -2° C | Precipitation: None | Dew Point: -10° C
[11:46] Visibility: 26 miles
[11:46] METAR: KALK 231456Z AUTO 00000KT 10SM CLR 18/11 A3016 RMK AO2 SLP130 T01830106 53014 KALO 231454Z 33015G22KT 10SM OVC011 03/01 A3014 RMK AO2 SLP213 T00330011 51031 KALW 231453Z 06003KT 10SM CLR 00/M05 A3014 RMK AO2 SLP216 T00001050 56034 KALM 231535Z AUTO 21006KT 10SM CLR 19/M02 A3014 RMK AO2 KALN 231450Z 31012KT 10SM OVC011 14/12 A3000 KALX 231535Z AUTO 07004KT 10SM OVC008 22/20 A3013 RMK AO2 T02210199 KALS 231452Z AUTO 00000KT 9SM CLR 03/M09 A3016 RMK AO2 SLP173 T00331089 53014 KALI 231521Z AUTO 18005KT 8SM SCT012 BKN020 27/24 A2994 RMK AO2 T02670244 KALB 231451Z 17012G20KT 6SM BR BKN012 18/17 A3017 RMK AO2 SLP216 T01830167 58012
[11:46] NOTE: Climb started
[11:46] Flaps: Position 4
[11:46] Speed Data: 77 knots GS | 69 knots TAS | 66 knots IAS | 277 fpm VS
[11:46] Flaps: Position 2
[11:46] Speed Data: 77 knots GS | 71 knots TAS | 67 knots IAS | 299 fpm VS
[11:46] Flaps: Position 0
[11:46] Speed Data: 79 knots GS | 73 knots TAS | 69 knots IAS | 289 fpm VS
[11:46] View Mode: Virtual Cockpit
[11:46] Autopilot: Engaged
[11:46] Altitude Data: 288 ft AGL | 465 ft AMSL
[11:48] NOTE: TOC reached
[11:48] NOTE: Cruise started
[11:48] Speed Data: 126 knots GS | 123 knots TAS | 123 knots IAS | 48 fpm VS
[11:48] FOB: 561 lbs
[11:48] Heading: 131° | Pitch: 2° | Bank: 0°
[11:48] Aircraft Weight: 4741.63 lbs
[11:49] Navigation Mode: GPS
[12:03] Recovery: Flight Saved
[12:23] Recovery: Flight Saved
[12:29] NOTE: TOD reached
[12:29] NOTE: Descent started
[12:29] Speed Data: 132 knots GS | 137 knots TAS | 137 knots IAS | -407 fpm VS
[12:29] FOB: 441 lbs
[12:29] Heading: 176° | Pitch: 0° | Bank: 0°
[12:29] Aircraft Weight: 4621.51 lbs
[12:29] NOTE: On approach
[12:33] Autopilot: Disengaged
[12:33] Altitude Data: 39 ft AGL | 803 ft AMSL
[12:35] Flaps: Position 1
[12:35] Speed Data: 99 knots GS | 88 knots TAS | 83 knots IAS | 1111 fpm VS
[12:35] Flaps: Position 2
[12:35] Speed Data: 97 knots GS | 88 knots TAS | 84 knots IAS | 745 fpm VS
[12:36] Flaps: Position 3
[12:36] Speed Data: 97 knots GS | 86 knots TAS | 82 knots IAS | 507 fpm VS
[12:36] Flaps: Position 5
[12:36] Speed Data: 95 knots GS | 85 knots TAS | 81 knots IAS | 184 fpm VS
[12:37] Flaps: Position 6
[12:37] Speed Data: 81 knots GS | 72 knots TAS | 67 knots IAS | -464 fpm VS
[12:37] Flaps: Position 7
[12:37] Speed Data: 79 knots GS | 70 knots TAS | 65 knots IAS | -227 fpm VS
[12:41] NOTE: ----- LANDED -----
[12:41] Landing Rate: -80.74 fpm
[12:41] Speed Data: 54 knots GS | 64 knots TAS | 59 knots IAS | -81 fpm VS
[12:41] FOB: 422 lbs
[12:41] Heading: 6° | Pitch: 5° | Bank: 2°
[12:41] Aircraft Weight: 4602.72 lbs
[12:41] Nearest Airport: PANV | 0.08 miles
[12:41] Runway: ???
[12:41] Ground Surface: Gravel
[12:41] Ground Condition: Snow
[12:41] NOTE: Weather Report
[12:41] Wind 51° | 15 knots
[12:41] OAT: -4° C | TAT: -4° C | Precipitation: Very Light Snow | Dew Point: -6° C
[12:41] Visibility: 4 miles
[12:41] METAR: PANV 222356Z AUTO 05012KT 10SM CLR M02/M06 A3027 RMK AO2 SLP369 T10221061 11022 21056 58016 FZRANO TSNO
[12:41] View Mode: Virtual Cockpit
[12:41] NOTE: Taxi started
[12:41] NOTE: Arrived
[12:41] Parking Brake: Engaged
[12:42] Gate: n/a
[12:42] NOTE: Flight Completed
[12:42] FS Aircraft: MilViz DHC2 Beaver N1117F
[12:42] FS Model: DHC2
[12:42] FS Type: Silent
[12:42] FOB: 422 lbs
[12:42] Fuel Used: 148 lbs
[12:42] Flight Time: 00:57:05
[12:42] Flight Time (Dawn): 00:00:00
[12:42] Flight Time (Day): 00:57:05
[12:42] Flight Time (Dusk): 00:00:00
[12:42] Flight Time (Night): 00:00:00
[12:42] Total Landings: 1
[12:42] MaxSim Rate: 1x
[12:42] Cigar Box - 1.1.4.0
[12:42] ----- Flight Closed -----

Route Map